Time;durP1;ratioP1;P1;durP2;ratioP2;P2;SDS_P1;SDS_P2;PMS_P1;PMS_P2;Temp;Humidity;BMP_temperature;BMP_pressure;BME280_temperature;BME280_humidity;BME280_pressure;Samples;Min_cycle;Max_cycle;Signal;HPM_P1;HPM_P2
2020/12/06 00:01:57;;;;;;;16.05;11.32;;;3.00;84.50;;;;;;5045163;28;20638;-72
2020/12/06 00:04:22;;;;;;;15.75;11.88;;;3.00;84.50;;;;;;5045373;28;20472;-72
2020/12/06 00:06:48;;;;;;;18.13;12.63;;;3.00;84.70;;;;;;5034252;28;20041;-72
2020/12/06 00:09:15;;;;;;;18.30;13.00;;;3.10;84.70;;;;;;5036413;28;20113;-72
2020/12/06 00:11:41;;;;;;;16.17;13.55;;;3.10;84.70;;;;;;5040338;28;20029;-71
2020/12/06 00:14:07;;;;;;;17.92;12.77;;;3.10;84.80;;;;;;5040647;28;20039;-71
2020/12/06 00:16:32;;;;;;;17.85;13.50;;;3.00;85.00;;;;;;5035757;28;20037;-73
2020/12/06 00:18:58;;;;;;;17.33;12.80;;;3.10;84.80;;;;;;5035357;28;20124;-70
2020/12/06 00:21:24;;;;;;;16.17;13.15;;;3.10;84.90;;;;;;5037570;28;20458;-70
2020/12/06 00:23:49;;;;;;;18.40;13.98;;;3.10;84.90;;;;;;5042177;28;20478;-70
2020/12/06 00:26:25;;;;;;;17.50;12.93;;;3.10;84.80;;;;;;5036980;28;20049;-71
2020/12/06 00:28:52;;;;;;;16.67;12.65;;;3.10;84.60;;;;;;5034538;28;20030;-71
2020/12/06 00:31:18;;;;;;;17.17;13.68;;;3.10;84.60;;;;;;5035333;28;20041;-71
2020/12/06 00:33:44;;;;;;;15.70;12.57;;;3.10;84.70;;;;;;5032697;28;20498;-73
2020/12/06 00:36:14;;;;;;;16.67;13.27;;;3.10;84.70;;;;;;5038337;28;20476;-72
2020/12/06 00:38:40;;;;;;;17.67;12.98;;;3.10;84.60;;;;;;5037568;28;20037;-70
2020/12/06 00:41:10;;;;;;;14.63;11.80;;;3.10;84.60;;;;;;5037167;28;20059;-70
2020/12/06 00:43:36;;;;;;;16.63;13.65;;;3.10;84.50;;;;;;5038026;28;20053;-70
2020/12/06 00:46:02;;;;;;;17.48;13.70;;;3.10;84.70;;;;;;5040408;28;20463;-70
2020/12/06 00:48:27;;;;;;;16.80;13.73;;;3.00;84.80;;;;;;5038266;28;20380;-71
2020/12/06 00:50:53;;;;;;;17.10;13.07;;;3.00;84.80;;;;;;5033396;28;20041;-71
2020/12/06 00:53:18;;;;;;;17.80;12.80;;;3.00;84.90;;;;;;5040528;28;20494;-70
2020/12/06 00:55:44;;;;;;;16.88;13.05;;;2.90;84.90;;;;;;5040845;28;20112;-72
2020/12/06 00:58:10;;;;;;;19.67;13.55;;;3.00;85.10;;;;;;5045539;28;20120;-70
2020/12/06 01:00:35;;;;;;;17.73;13.50;;;2.90;84.90;;;;;;5040444;28;20036;-71
2020/12/06 01:03:01;;;;;;;18.85;13.75;;;2.90;84.90;;;;;;5035017;28;20029;-72
2020/12/06 01:05:27;;;;;;;17.50;13.07;;;2.90;84.80;;;;;;5037576;28;20044;-71
2020/12/06 01:07:52;;;;;;;16.10;13.13;;;2.80;84.90;;;;;;5049087;28;20041;-70
2020/12/06 01:10:18;;;;;;;18.40;12.88;;;2.90;84.80;;;;;;5048087;28;20373;-71
2020/12/06 01:12:44;;;;;;;17.52;13.18;;;2.90;84.90;;;;;;5043035;28;20126;-75
2020/12/06 01:15:10;;;;;;;18.30;13.02;;;2.80;84.80;;;;;;5046286;28;20925;-71
2020/12/06 01:17:37;;;;;;;17.58;14.18;;;2.70;85.00;;;;;;5047531;28;20060;-74
2020/12/06 01:20:05;;;;;;;18.67;14.60;;;2.60;85.00;;;;;;5048317;28;20373;-70
2020/12/06 01:22:31;;;;;;;18.63;14.98;;;2.60;85.40;;;;;;5040765;28;20060;-72
2020/12/06 01:24:57;;;;;;;19.90;15.25;;;2.40;85.80;;;;;;5040437;28;20039;-71
2020/12/06 01:27:23;;;;;;;18.75;14.35;;;2.40;86.10;;;;;;5046141;28;20033;-74
2020/12/06 01:29:49;;;;;;;19.38;14.15;;;2.40;86.30;;;;;;5044790;28;20029;-75
2020/12/06 01:32:14;;;;;;;19.13;14.35;;;2.40;86.40;;;;;;5040118;28;20064;-72
2020/12/06 01:34:40;;;;;;;17.85;13.75;;;2.40;86.60;;;;;;5046186;28;20060;-72
2020/12/06 01:37:06;;;;;;;17.00;13.70;;;2.40;86.70;;;;;;5041238;28;20383;-74
2020/12/06 01:39:31;;;;;;;19.25;13.80;;;2.40;86.70;;;;;;5054841;28;20033;-72
2020/12/06 01:41:57;;;;;;;17.38;13.95;;;2.40;86.80;;;;;;5040429;28;20029;-72
2020/12/06 01:44:24;;;;;;;18.15;14.00;;;2.50;86.80;;;;;;5042054;28;20041;-73
2020/12/06 01:46:52;;;;;;;18.38;14.13;;;2.50;86.60;;;;;;5034725;28;20039;-72
2020/12/06 01:49:22;;;;;;;18.58;13.70;;;2.50;86.50;;;;;;5043531;28;20119;-71
2020/12/06 01:51:54;;;;;;;20.63;15.13;;;2.50;86.30;;;;;;5055421;28;20028;-74
2020/12/06 01:54:19;;;;;;;18.83;13.95;;;2.40;86.30;;;;;;5063147;28;20036;-72
2020/12/06 01:56:45;;;;;;;16.95;13.13;;;2.40;86.40;;;;;;5069226;28;20028;-72
2020/12/06 01:59:11;;;;;;;16.83;13.73;;;2.30;86.40;;;;;;5064335;28;20029;-72
2020/12/06 02:01:38;;;;;;;18.35;14.10;;;2.30;86.60;;;;;;5056522;28;20120;-74
2020/12/06 02:04:04;;;;;;;18.58;13.95;;;2.30;86.80;;;;;;5058205;28;20033;-72
2020/12/06 02:06:30;;;;;;;17.38;13.98;;;2.30;86.80;;;;;;5066671;28;20123;-74
2020/12/06 02:08:56;;;;;;;18.20;14.70;;;2.30;86.70;;;;;;5064122;28;20127;-71
2020/12/06 02:11:32;;;;;;;17.67;13.75;;;2.30;86.80;;;;;;5060446;28;20371;-71
2020/12/06 02:13:58;;;;;;;17.63;13.65;;;2.30;86.70;;;;;;5041075;28;20056;-72
2020/12/06 02:16:24;;;;;;;17.40;14.00;;;2.40;86.70;;;;;;5057813;28;20063;-73
2020/12/06 02:18:50;;;;;;;17.95;13.68;;;2.40;86.70;;;;;;5065970;28;20094;-72
2020/12/06 02:21:16;;;;;;;17.58;14.00;;;2.40;86.70;;;;;;5049890;28;20563;-72
2020/12/06 02:23:42;;;;;;;17.55;14.48;;;2.30;86.60;;;;;;5051419;28;20040;-72
2020/12/06 02:26:07;;;;;;;18.25;14.35;;;2.30;86.70;;;;;;5068959;28;20131;-72
2020/12/06 02:28:33;;;;;;;19.83;14.55;;;2.30;86.70;;;;;;5061529;28;20040;-72
2020/12/06 02:30:59;;;;;;;19.30;15.52;;;2.30;86.60;;;;;;5066919;28;20041;-73
2020/12/06 02:33:24;;;;;;;18.52;14.63;;;2.20;86.90;;;;;;5040803;28;20064;-72
2020/12/06 02:35:50;;;;;;;19.35;14.23;;;2.10;87.20;;;;;;5050606;28;20048;-73
2020/12/06 02:38:16;;;;;;;19.27;14.20;;;2.10;87.30;;;;;;5057252;28;20068;-72
2020/12/06 02:40:41;;;;;;;19.30;14.13;;;1.90;87.40;;;;;;5070162;28;20150;-72
2020/12/06 02:43:07;;;;;;;22.40;14.75;;;1.90;87.70;;;;;;5061905;28;20036;-72
2020/12/06 02:45:32;;;;;;;20.65;14.70;;;1.90;87.70;;;;;;5063032;28;20179;-72
2020/12/06 02:47:58;;;;;;;18.75;14.95;;;1.90;87.80;;;;;;5060517;28;20135;-72
2020/12/06 02:50:23;;;;;;;21.20;16.02;;;1.90;87.80;;;;;;5053919;28;20025;-72
2020/12/06 02:52:51;;;;;;;20.10;15.23;;;1.90;87.90;;;;;;5055981;28;20095;-71
2020/12/06 02:55:17;;;;;;;21.17;15.73;;;1.80;87.90;;;;;;5062241;28;20085;-71
2020/12/06 02:57:43;;;;;;;19.63;14.80;;;1.80;88.00;;;;;;5056771;28;20132;-72
2020/12/06 03:00:08;;;;;;;19.75;14.55;;;1.70;88.00;;;;;;5054508;28;20037;-72
2020/12/06 03:02:34;;;;;;;22.15;14.57;;;1.60;88.10;;;;;;5061119;28;20040;-71
2020/12/06 03:04:59;;;;;;;18.27;14.80;;;1.60;88.30;;;;;;5052845;28;20040;-73
2020/12/06 03:07:25;;;;;;;19.40;14.52;;;1.60;88.50;;;;;;5053828;28;20067;-75
2020/12/06 03:09:51;;;;;;;20.63;16.10;;;1.60;88.50;;;;;;5068934;28;20047;-72
2020/12/06 03:12:16;;;;;;;18.70;14.82;;;1.60;88.60;;;;;;5060021;28;20649;-71
2020/12/06 03:14:42;;;;;;;20.00;14.88;;;1.50;88.60;;;;;;5062906;28;20391;-72
2020/12/06 03:17:07;;;;;;;18.95;15.38;;;1.50;88.60;;;;;;5062842;28;20498;-72
2020/12/06 03:19:33;;;;;;;21.15;15.75;;;1.50;88.60;;;;;;5061112;28;20031;-71
2020/12/06 03:21:59;;;;;;;19.88;15.25;;;1.40;88.60;;;;;;5058029;28;20657;-72
2020/12/06 03:24:24;;;;;;;19.40;15.82;;;1.40;88.60;;;;;;5065450;28;20129;-73
2020/12/06 03:26:50;;;;;;;21.33;16.38;;;1.40;88.70;;;;;;5043086;28;20040;-72
2020/12/06 03:29:16;;;;;;;21.10;16.70;;;1.40;88.70;;;;;;5032359;28;20116;-72
2020/12/06 03:31:42;;;;;;;21.92;16.75;;;1.30;88.80;;;;;;5040548;28;20037;-72
2020/12/06 03:34:07;;;;;;;21.30;16.67;;;1.20;88.80;;;;;;5064226;28;20032;-73
2020/12/06 03:36:33;;;;;;;20.10;14.90;;;1.20;88.90;;;;;;5061906;28;20043;-72
2020/12/06 03:38:58;;;;;;;20.02;15.90;;;1.20;88.90;;;;;;5056267;28;20037;-72
2020/12/06 03:41:24;;;;;;;21.92;16.58;;;1.10;89.00;;;;;;5066661;28;20096;-72
2020/12/06 03:43:49;;;;;;;23.52;16.17;;;1.10;89.10;;;;;;5062690;28;20040;-72
2020/12/06 03:46:15;;;;;;;23.48;17.08;;;1.10;88.90;;;;;;5062778;28;20110;-71
2020/12/06 03:48:41;;;;;;;23.40;18.00;;;1.10;89.00;;;;;;5066406;28;20299;-72
2020/12/06 03:51:06;;;;;;;21.55;17.02;;;1.10;89.00;;;;;;5056131;28;20119;-72
2020/12/06 03:53:32;;;;;;;24.77;17.70;;;1.10;88.80;;;;;;5056763;28;20079;-71
2020/12/06 03:55:58;;;;;;;26.45;18.52;;;1.00;88.90;;;;;;5056290;28;20033;-72
2020/12/06 03:58:23;;;;;;;25.45;18.98;;;0.90;89.10;;;;;;5044298;28;20029;-71
2020/12/06 04:00:49;;;;;;;26.77;19.25;;;0.80;89.40;;;;;;5044419;28;20475;-74
2020/12/06 04:03:15;;;;;;;21.65;17.70;;;0.70;89.60;;;;;;5056628;28;20036;-74
2020/12/06 04:05:41;;;;;;;25.60;19.10;;;0.70;89.80;;;;;;5067484;28;20398;-72
2020/12/06 04:08:07;;;;;;;23.35;18.95;;;0.60;89.90;;;;;;5067187;28;20424;-74
2020/12/06 04:10:32;;;;;;;24.13;19.38;;;0.60;90.00;;;;;;5061751;28;20107;-71
2020/12/06 04:12:58;;;;;;;25.23;20.02;;;0.60;90.00;;;;;;5055645;28;20616;-71
2020/12/06 04:15:23;;;;;;;24.13;19.08;;;0.60;90.10;;;;;;5069042;28;20043;-71
2020/12/06 04:17:49;;;;;;;27.45;20.98;;;0.50;90.20;;;;;;5067193;28;20033;-72
2020/12/06 04:20:15;;;;;;;27.92;20.98;;;0.50;90.20;;;;;;5062119;28;20037;-73
2020/12/06 04:22:40;;;;;;;26.80;20.17;;;0.50;90.30;;;;;;5061349;28;20123;-71
2020/12/06 04:25:06;;;;;;;25.85;19.70;;;0.50;90.30;;;;;;5062274;28;20056;-72
2020/12/06 04:27:32;;;;;;;25.67;19.67;;;0.50;90.30;;;;;;5067245;28;20043;-72
2020/12/06 04:29:57;;;;;;;25.65;19.58;;;0.50;90.30;;;;;;5064446;28;20036;-72
2020/12/06 04:32:23;;;;;;;25.92;19.33;;;0.50;90.30;;;;;;5064470;28;20120;-76
2020/12/06 04:34:49;;;;;;;25.17;20.17;;;0.40;90.20;;;;;;5066141;28;20102;-72
2020/12/06 04:37:14;;;;;;;26.15;20.48;;;0.40;90.30;;;;;;5067580;28;20423;-72
2020/12/06 04:39:40;;;;;;;26.80;21.52;;;0.40;90.30;;;;;;5061567;28;20073;-72
2020/12/06 04:42:06;;;;;;;29.42;22.10;;;0.30;90.30;;;;;;5067566;28;20455;-73
2020/12/06 04:44:32;;;;;;;28.98;21.85;;;0.40;90.30;;;;;;5067552;28;20040;-74
2020/12/06 04:47:03;;;;;;;25.17;21.92;;;0.40;90.30;;;;;;5064028;28;20037;-72
2020/12/06 04:49:44;;;;;;;26.95;21.77;;;0.40;90.30;;;;;;5054482;28;20484;-72
2020/12/06 04:52:17;;;;;;;26.13;20.80;;;0.40;90.20;;;;;;5059995;28;20483;-72
2020/12/06 04:54:49;;;;;;;27.83;22.42;;;0.30;90.20;;;;;;5066496;28;20119;-73
2020/12/06 04:57:18;;;;;;;26.80;21.70;;;0.30;90.40;;;;;;5059205;28;20067;-73
2020/12/06 04:59:46;;;;;;;26.05;20.98;;;0.20;90.40;;;;;;5058357;28;20057;-72
2020/12/06 05:02:15;;;;;;;28.73;22.02;;;0.20;90.40;;;;;;5057536;28;20044;-72
2020/12/06 05:04:43;;;;;;;27.15;21.33;;;0.20;90.40;;;;;;5068228;28;20490;-72
2020/12/06 05:07:09;;;;;;;27.92;22.45;;;0.20;90.50;;;;;;5061601;28;20040;-72
2020/12/06 05:09:36;;;;;;;27.52;22.77;;;0.20;90.60;;;;;;5068010;28;20049;-73
2020/12/06 05:12:04;;;;;;;30.60;22.10;;;0.10;90.60;;;;;;5057783;28;20055;-76
2020/12/06 05:14:30;;;;;;;28.45;24.10;;;0.10;90.60;;;;;;5051288;28;20732;-73
2020/12/06 05:16:57;;;;;;;29.27;23.27;;;0.10;90.70;;;;;;5055395;28;20499;-70
2020/12/06 05:19:26;;;;;;;30.77;23.33;;;0.10;90.80;;;;;;5063174;28;20035;-72
2020/12/06 05:21:53;;;;;;;32.55;25.20;;;0.00;90.90;;;;;;5060905;28;20368;-76
2020/12/06 05:24:19;;;;;;;29.90;23.75;;;0.00;91.00;;;;;;5063309;28;20425;-72
2020/12/06 05:26:44;;;;;;;29.92;24.30;;;0.00;91.10;;;;;;5046070;28;20052;-72
2020/12/06 05:29:12;;;;;;;33.03;24.48;;;0.00;91.10;;;;;;5034910;28;20033;-72
2020/12/06 05:31:38;;;;;;;28.08;23.52;;;0.00;91.00;;;;;;5040152;28;20057;-72
2020/12/06 05:34:03;;;;;;;29.08;24.08;;;0.00;91.00;;;;;;5038331;28;20412;-73
2020/12/06 05:36:29;;;;;;;30.55;23.85;;;0.00;90.90;;;;;;5034507;28;20071;-72
2020/12/06 05:38:55;;;;;;;28.55;22.50;;;0.00;90.90;;;;;;5036748;28;20388;-73
2020/12/06 05:41:20;;;;;;;29.42;24.05;;;0.00;90.90;;;;;;5040961;28;20045;-71
2020/12/06 05:43:46;;;;;;;31.08;23.77;;;0.00;90.80;;;;;;5041615;28;20113;-71
2020/12/06 05:46:16;;;;;;;30.27;23.08;;;0.00;90.90;;;;;;5037268;28;20976;-72
2020/12/06 05:48:44;;;;;;;31.02;24.00;;;0.00;90.90;;;;;;5041705;28;20045;-70
2020/12/06 05:51:11;;;;;;;30.25;23.45;;;0.00;90.80;;;;;;5032720;28;20033;-74
2020/12/06 05:53:37;;;;;;;29.52;23.63;;;0.00;90.80;;;;;;5046723;28;20040;-72
2020/12/06 05:56:15;;;;;;;33.83;24.50;;;0.00;90.70;;;;;;5043715;28;20248;-71
2020/12/06 05:58:42;;;;;;;31.58;24.63;;;0.00;90.70;;;;;;5031383;28;20060;-71
2020/12/06 06:01:13;;;;;;;30.48;24.65;;;0.00;90.80;;;;;;5040350;28;20041;-71
2020/12/06 06:03:49;;;;;;;29.60;23.65;;;0.00;90.70;;;;;;5029523;28;20065;-70
2020/12/06 06:06:30;;;;;;;31.55;24.90;;;0.00;90.60;;;;;;5045544;28;20049;-71
2020/12/06 06:09:00;;;;;;;30.13;23.30;;;0.00;90.80;;;;;;5038691;28;20036;-71
2020/12/06 06:11:27;;;;;;;30.55;23.58;;;0.00;90.80;;;;;;5064329;28;20021;-72
2020/12/06 06:13:53;;;;;;;30.98;23.25;;;0.00;90.90;;;;;;5064367;28;20031;-71
2020/12/06 06:16:20;;;;;;;31.70;24.23;;;0.00;90.80;;;;;;5059175;28;20040;-70
2020/12/06 06:18:48;;;;;;;31.13;23.45;;;0.00;90.90;;;;;;5060308;28;20029;-72
2020/12/06 06:21:17;;;;;;;33.17;25.17;;;0.00;90.80;;;;;;5040817;28;20037;-70
2020/12/06 06:23:44;;;;;;;29.70;24.73;;;0.00;90.60;;;;;;5053667;28;20044;-71
2020/12/06 06:26:11;;;;;;;31.83;24.67;;;0.00;90.40;;;;;;5064077;28;20052;-72
2020/12/06 06:28:37;;;;;;;33.40;24.60;;;0.00;90.50;;;;;;5054509;28;20040;-73
2020/12/06 06:31:04;;;;;;;31.83;23.23;;;0.00;90.60;;;;;;5056850;28;20502;-71
2020/12/06 06:33:33;;;;;;;30.60;24.25;;;0.00;90.60;;;;;;5057567;28;20124;-71
2020/12/06 06:36:00;;;;;;;31.13;24.95;;;0.00;90.50;;;;;;5059834;28;20279;-71
2020/12/06 06:38:26;;;;;;;30.50;24.20;;;0.00;90.50;;;;;;5054401;28;20040;-71
2020/12/06 06:40:54;;;;;;;30.20;24.13;;;0.00;90.50;;;;;;5061006;28;20040;-71
2020/12/06 06:43:25;;;;;;;33.13;26.52;;;0.00;90.50;;;;;;5051570;28;20460;-73
2020/12/06 06:45:51;;;;;;;32.50;25.13;;;0.00;90.40;;;;;;5069370;28;20037;-70
2020/12/06 06:48:17;;;;;;;32.20;24.40;;;0.00;90.40;;;;;;5054969;28;20090;-72
2020/12/06 06:50:47;;;;;;;34.60;27.00;;;0.00;90.40;;;;;;5054799;28;20411;-73
2020/12/06 06:53:16;;;;;;;36.65;27.30;;;0.00;90.50;;;;;;5058319;28;20364;-72
2020/12/06 06:55:51;;;;;;;33.67;25.08;;;0.00;90.60;;;;;;5055692;28;20066;-72
2020/12/06 06:58:18;;;;;;;32.67;24.52;;;0.00;90.70;;;;;;5056212;28;20049;-73
2020/12/06 07:00:44;;;;;;;32.63;24.48;;;0.00;90.80;;;;;;5056460;28;20128;-72
2020/12/06 07:03:12;;;;;;;29.38;24.20;;;0.00;90.70;;;;;;5054528;28;20123;-71
2020/12/06 07:05:38;;;;;;;30.73;23.65;;;0.00;90.60;;;;;;5054255;28;20049;-70
2020/12/06 07:08:17;;;;;;;32.63;23.98;;;0.00;90.70;;;;;;5051315;28;20039;-74
2020/12/06 07:10:42;;;;;;;31.50;24.52;;;0.00;90.70;;;;;;5054847;28;20037;-74
2020/12/06 07:13:08;;;;;;;29.83;24.25;;;0.00;90.60;;;;;;5053123;28;20429;-72
2020/12/06 07:15:34;;;;;;;30.52;24.65;;;0.00;90.60;;;;;;5057699;28;20033;-72
2020/12/06 07:18:01;;;;;;;30.98;24.98;;;0.00;90.60;;;;;;5036272;28;20037;-73
2020/12/06 07:20:28;;;;;;;30.25;24.17;;;0.00;90.60;;;;;;5052725;28;20494;-73
2020/12/06 07:22:55;;;;;;;30.80;24.38;;;0.00;90.50;;;;;;5053203;28;20044;-73
2020/12/06 07:25:22;;;;;;;30.70;23.38;;;0.00;90.60;;;;;;5049047;28;20048;-73
2020/12/06 07:27:49;;;;;;;31.65;24.58;;;0.00;90.50;;;;;;5040993;28;20033;-74
2020/12/06 07:30:19;;;;;;;34.25;25.13;;;-3276.70;90.50;;;;;;5038787;28;20033;-71
2020/12/06 07:32:46;;;;;;;33.70;24.50;;;-3276.70;90.60;;;;;;5038034;28;20110;-73
2020/12/06 07:35:14;;;;;;;34.42;24.55;;;-3276.70;90.50;;;;;;5041377;28;20112;-71
2020/12/06 07:37:39;;;;;;;32.38;24.17;;;-3276.70;90.50;;;;;;5035994;28;20102;-73
2020/12/06 07:40:10;;;;;;;33.20;24.70;;;-3276.70;90.60;;;;;;5035782;28;20453;-72
2020/12/06 07:42:37;;;;;;;33.28;23.98;;;-3276.70;90.60;;;;;;5032326;28;20434;-72
2020/12/06 07:45:05;;;;;;;28.60;23.67;;;-3276.70;90.60;;;;;;5035032;28;20087;-72
2020/12/06 07:47:32;;;;;;;28.67;22.98;;;-3276.70;90.60;;;;;;5032418;28;20029;-73
2020/12/06 07:49:59;;;;;;;29.73;22.58;;;-3276.70;90.60;;;;;;5058751;28;20040;-71
2020/12/06 07:52:29;;;;;;;31.60;25.58;;;0.00;90.60;;;;;;5032265;28;20037;-72
2020/12/06 07:55:00;;;;;;;27.83;22.08;;;0.00;90.50;;;;;;5027098;28;20026;-72
2020/12/06 07:57:40;;;;;;;34.97;26.60;;;0.00;90.30;;;;;;5053985;28;20036;-72
2020/12/06 08:00:10;;;;;;;33.22;26.25;;;0.00;90.20;;;;;;5056214;28;20043;-71
2020/12/06 08:02:38;;;;;;;31.85;24.73;;;0.00;90.20;;;;;;5057799;28;20044;-71
2020/12/06 08:05:07;;;;;;;31.95;24.65;;;0.00;90.20;;;;;;5054058;28;20410;-74
2020/12/06 08:07:38;;;;;;;34.13;25.85;;;0.00;90.20;;;;;;5054122;28;20148;-71
2020/12/06 08:10:09;;;;;;;35.03;27.73;;;0.00;90.20;;;;;;5053697;28;20040;-75
2020/12/06 08:12:36;;;;;;;36.80;28.48;;;0.10;90.10;;;;;;5054487;28;20107;-72
2020/12/06 08:15:06;;;;;;;32.38;24.92;;;0.10;89.90;;;;;;5054802;28;20080;-72
2020/12/06 08:17:45;;;;;;;30.45;24.20;;;0.10;89.50;;;;;;5052323;28;20524;-71
2020/12/06 08:20:13;;;;;;;35.67;26.35;;;0.10;89.40;;;;;;5061193;28;20040;-70
2020/12/06 08:22:59;;;;;;;34.42;25.13;;;0.10;89.40;;;;;;5048247;28;20041;-73
2020/12/06 08:25:48;;;;;;;32.10;25.45;;;0.10;89.50;;;;;;5034939;28;20042;-74
2020/12/06 08:28:20;;;;;;;31.75;26.83;;;0.20;89.60;;;;;;5042475;28;20060;-68
2020/12/06 08:30:46;;;;;;;32.22;25.52;;;0.20;89.40;;;;;;5059561;28;20036;-69
2020/12/06 08:33:11;;;;;;;34.30;25.95;;;0.30;89.40;;;;;;5062485;28;20115;-72
2020/12/06 08:35:50;;;;;;;35.38;26.75;;;0.40;89.30;;;;;;5063692;28;20090;-70
2020/12/06 08:38:20;;;;;;;31.40;24.85;;;0.50;89.20;;;;;;5055878;28;20068;-71
2020/12/06 08:41:05;;;;;;;32.45;25.75;;;0.60;88.90;;;;;;5063075;28;20040;-70
2020/12/06 08:43:48;;;;;;;43.30;33.13;;;0.60;88.60;;;;;;5046136;28;20586;-69
2020/12/06 08:46:24;;;;;;;42.67;35.03;;;0.60;88.40;;;;;;5040035;28;20437;-71
2020/12/06 08:48:53;;;;;;;42.08;33.38;;;0.60;88.40;;;;;;5035363;28;20045;-70
2020/12/06 08:51:37;;;;;;;40.58;32.78;;;0.70;88.40;;;;;;5037880;28;20108;-71
2020/12/06 08:54:05;;;;;;;38.13;30.80;;;0.70;88.50;;;;;;5034445;28;20080;-71
2020/12/06 08:56:34;;;;;;;37.78;31.95;;;0.70;88.40;;;;;;5038127;28;20075;-70
2020/12/06 08:59:14;;;;;;;42.78;32.17;;;0.80;88.40;;;;;;5038619;28;20041;-70
2020/12/06 09:01:50;;;;;;;39.03;33.50;;;0.90;88.30;;;;;;5041890;28;20080;-71
2020/12/06 09:04:16;;;;;;;39.50;30.88;;;0.90;88.20;;;;;;5030886;28;20099;-70
2020/12/06 09:06:43;;;;;;;33.40;29.52;;;1.00;88.10;;;;;;5038220;28;20069;-70
2020/12/06 09:09:08;;;;;;;31.77;26.55;;;1.00;88.00;;;;;;5039152;28;20461;-72
2020/12/06 09:11:35;;;;;;;37.13;29.70;;;1.00;87.90;;;;;;5044122;28;20036;-71
2020/12/06 09:14:00;;;;;;;37.58;29.83;;;1.00;87.80;;;;;;5042085;28;20115;-71
2020/12/06 09:16:26;;;;;;;36.10;29.48;;;0.90;87.60;;;;;;5043806;28;20125;-70
2020/12/06 09:18:52;;;;;;;36.35;29.08;;;0.80;88.10;;;;;;5035851;28;20113;-70
2020/12/06 09:21:17;;;;;;;35.78;29.40;;;0.60;88.70;;;;;;5048347;28;20120;-70
2020/12/06 09:23:45;;;;;;;35.20;29.35;;;0.50;89.30;;;;;;5045161;28;20503;-72
2020/12/06 09:26:11;;;;;;;34.95;28.80;;;0.50;89.60;;;;;;5042173;28;20038;-70
2020/12/06 09:28:36;;;;;;;33.88;27.80;;;0.50;89.60;;;;;;5041104;28;20060;-71
2020/12/06 09:31:02;;;;;;;35.30;28.70;;;0.60;89.80;;;;;;5037739;28;20058;-69
2020/12/06 09:33:28;;;;;;;35.05;29.20;;;0.60;89.70;;;;;;5038964;28;20033;-70
2020/12/06 09:35:54;;;;;;;35.50;28.45;;;0.70;89.50;;;;;;5041479;28;20036;-70
2020/12/06 09:38:20;;;;;;;35.85;30.17;;;0.80;89.50;;;;;;5048026;28;20107;-71
2020/12/06 09:40:45;;;;;;;34.50;27.25;;;0.80;89.30;;;;;;5036219;28;20486;-71
2020/12/06 09:43:11;;;;;;;34.70;28.27;;;0.90;89.30;;;;;;5048677;28;20048;-71
2020/12/06 09:45:38;;;;;;;35.63;28.52;;;1.00;89.30;;;;;;5045420;28;20106;-71
2020/12/06 09:48:04;;;;;;;35.05;28.42;;;1.00;88.90;;;;;;5041948;28;20171;-70
2020/12/06 09:50:30;;;;;;;37.78;28.58;;;1.10;88.60;;;;;;5049266;28;20447;-69
2020/12/06 09:52:56;;;;;;;36.13;29.13;;;1.10;88.80;;;;;;5038936;28;20029;-70
2020/12/06 09:55:22;;;;;;;35.47;28.00;;;1.30;88.70;;;;;;5045309;28;20033;-71
2020/12/06 09:57:47;;;;;;;34.75;27.27;;;1.40;88.40;;;;;;5044649;28;20467;-70
2020/12/06 10:00:13;;;;;;;32.63;26.95;;;1.50;88.10;;;;;;5044961;28;20116;-73
2020/12/06 10:02:38;;;;;;;33.70;27.27;;;1.60;87.90;;;;;;5041739;28;20483;-69
2020/12/06 10:05:04;;;;;;;39.03;30.48;;;1.70;87.90;;;;;;5048185;28;21214;-69
2020/12/06 10:07:30;;;;;;;36.95;31.73;;;1.70;87.60;;;;;;5043036;28;20025;-69
2020/12/06 10:09:55;;;;;;;35.97;28.13;;;1.70;87.10;;;;;;5048268;28;20533;-71
2020/12/06 10:12:21;;;;;;;31.80;26.98;;;1.70;86.80;;;;;;5042367;28;20064;-74
2020/12/06 10:14:47;;;;;;;35.67;29.02;;;1.80;86.90;;;;;;5045892;28;20475;-71
2020/12/06 10:17:12;;;;;;;32.63;26.05;;;1.80;87.00;;;;;;5046333;28;20033;-71
2020/12/06 10:19:38;;;;;;;30.48;24.95;;;1.90;86.80;;;;;;5041584;28;20037;-71
2020/12/06 10:22:04;;;;;;;29.30;25.25;;;1.90;86.70;;;;;;5045226;28;20448;-71
2020/12/06 10:24:30;;;;;;;33.23;26.33;;;1.90;86.60;;;;;;5047100;28;20037;-72
2020/12/06 10:26:56;;;;;;;31.65;26.88;;;2.00;86.90;;;;;;5036408;28;20292;-72
2020/12/06 10:29:23;;;;;;;32.65;25.58;;;2.00;86.00;;;;;;5036471;28;20037;-71
2020/12/06 10:31:49;;;;;;;39.95;30.27;;;2.00;86.20;;;;;;5045291;28;20079;-71
2020/12/06 10:34:15;;;;;;;39.67;32.63;;;2.10;86.20;;;;;;5039036;28;20040;-70
2020/12/06 10:36:41;;;;;;;45.20;36.63;;;2.10;86.00;;;;;;5046381;28;21704;-72
2020/12/06 10:39:07;;;;;;;45.53;36.10;;;2.10;85.60;;;;;;5043491;28;20029;-70
2020/12/06 10:41:32;;;;;;;42.45;36.83;;;1.80;86.50;;;;;;5042773;28;20084;-71
2020/12/06 10:43:58;;;;;;;42.05;33.85;;;1.70;86.90;;;;;;5048259;28;20044;-70
2020/12/06 10:46:27;;;;;;;44.95;34.88;;;1.60;87.50;;;;;;5040727;28;20128;-69
2020/12/06 10:48:53;;;;;;;42.72;36.33;;;1.70;87.90;;;;;;5041183;28;20045;-70
2020/12/06 10:51:18;;;;;;;41.42;34.08;;;1.80;87.90;;;;;;5040623;28;20044;-70
2020/12/06 10:53:44;;;;;;;44.08;36.25;;;1.70;87.70;;;;;;5036526;28;20041;-69
2020/12/06 10:56:10;;;;;;;46.72;35.67;;;1.80;88.20;;;;;;5037382;28;20037;-70
2020/12/06 10:58:36;;;;;;;43.05;35.92;;;2.00;88.30;;;;;;5037716;28;20033;-69
2020/12/06 11:01:02;;;;;;;41.63;33.83;;;2.10;87.60;;;;;;5034459;28;20523;-71
2020/12/06 11:03:27;;;;;;;40.05;35.10;;;2.10;87.70;;;;;;5039450;28;20555;-70
2020/12/06 11:05:53;;;;;;;40.28;32.30;;;2.20;87.10;;;;;;5041665;28;20149;-69
2020/12/06 11:08:18;;;;;;;38.80;32.05;;;2.20;86.80;;;;;;5045669;28;20040;-70
2020/12/06 11:10:45;;;;;;;41.08;33.75;;;2.30;86.90;;;;;;5037584;28;20029;-71
2020/12/06 11:13:11;;;;;;;39.55;34.33;;;2.40;87.10;;;;;;5032765;28;20034;-71
2020/12/06 11:15:36;;;;;;;41.85;33.90;;;2.60;87.00;;;;;;5039276;28;20030;-75
2020/12/06 11:18:02;;;;;;;38.88;33.20;;;2.60;86.80;;;;;;5030947;28;20068;-69
2020/12/06 11:20:28;;;;;;;38.20;32.25;;;2.60;85.70;;;;;;5036674;28;20116;-69
2020/12/06 11:22:53;;;;;;;40.13;32.92;;;2.60;85.90;;;;;;5037869;28;20500;-70
2020/12/06 11:25:19;;;;;;;42.90;33.92;;;2.60;86.60;;;;;;5033111;28;20081;-71
2020/12/06 11:27:44;;;;;;;39.47;33.38;;;2.60;86.00;;;;;;5036727;28;20512;-69
2020/12/06 11:30:10;;;;;;;36.42;30.98;;;2.60;86.20;;;;;;5033990;28;21585;-70
2020/12/06 11:32:36;;;;;;;37.50;31.90;;;2.60;86.40;;;;;;5035702;28;20449;-70
2020/12/06 11:35:01;;;;;;;41.15;34.95;;;2.60;86.20;;;;;;5030150;28;20033;-70
2020/12/06 11:37:27;;;;;;;36.88;31.27;;;2.60;86.10;;;;;;5032197;28;20040;-69
2020/12/06 11:39:52;;;;;;;43.67;34.75;;;2.50;86.40;;;;;;5037053;28;20040;-71
2020/12/06 11:42:18;;;;;;;42.92;35.90;;;2.50;86.60;;;;;;5036584;28;20034;-70
2020/12/06 11:44:43;;;;;;;41.22;34.47;;;2.50;86.80;;;;;;5040496;28;20478;-70
2020/12/06 11:47:09;;;;;;;43.72;36.47;;;2.40;87.00;;;;;;5040284;28;20068;-69
2020/12/06 11:49:36;;;;;;;44.42;36.15;;;2.40;87.20;;;;;;5040908;28;20033;-69
2020/12/06 11:52:02;;;;;;;41.75;34.30;;;2.50;87.40;;;;;;5032595;28;20476;-72
2020/12/06 11:54:28;;;;;;;41.60;34.78;;;2.60;87.30;;;;;;5042369;28;20055;-69
2020/12/06 11:56:53;;;;;;;42.67;34.00;;;2.60;87.00;;;;;;5039985;28;20531;-70
2020/12/06 11:59:19;;;;;;;42.78;35.78;;;2.60;86.80;;;;;;5039688;28;20451;-71
2020/12/06 12:01:45;;;;;;;43.03;36.00;;;2.70;86.90;;;;;;5033876;28;20040;-71
2020/12/06 12:04:11;;;;;;;40.55;34.72;;;2.70;86.70;;;;;;5032443;28;20039;-70
2020/12/06 12:06:36;;;;;;;46.88;36.17;;;2.80;87.30;;;;;;5040860;28;20053;-71
2020/12/06 12:09:03;;;;;;;45.00;37.38;;;2.90;86.50;;;;;;5043507;28;20044;-70
2020/12/06 12:11:29;;;;;;;40.55;34.97;;;2.90;86.80;;;;;;5043435;28;20031;-69
2020/12/06 12:13:54;;;;;;;45.83;37.50;;;3.10;86.70;;;;;;5046389;28;20396;-69
2020/12/06 12:16:20;;;;;;;46.03;38.20;;;3.10;85.80;;;;;;5038423;28;20044;-71
2020/12/06 12:18:46;;;;;;;43.40;36.38;;;3.10;85.90;;;;;;5035728;28;20365;-70
2020/12/06 12:21:11;;;;;;;45.17;36.72;;;3.30;86.30;;;;;;5041104;28;20040;-70
2020/12/06 12:23:37;;;;;;;46.40;35.97;;;3.20;85.90;;;;;;5041924;28;20057;-70
2020/12/06 12:26:02;;;;;;;46.47;37.05;;;3.40;86.20;;;;;;5034918;28;20071;-69
2020/12/06 12:28:28;;;;;;;46.55;35.75;;;3.60;85.60;;;;;;5048521;28;20120;-71
2020/12/06 12:30:55;;;;;;;39.90;33.33;;;4.00;85.10;;;;;;5057600;28;20029;-70
2020/12/06 12:33:20;;;;;;;40.42;33.42;;;4.10;84.10;;;;;;5049589;28;20475;-69
2020/12/06 12:35:46;;;;;;;39.28;33.50;;;4.30;83.30;;;;;;5033047;28;20033;-69